createdAt,value
2023-08-02T00:01:34.194Z,16.14
2023-08-02T00:04:10.250Z,16.09
2023-08-02T00:06:37.701Z,16.12
2023-08-02T00:09:04.296Z,16.12
2023-08-02T00:11:30.854Z,16.09
2023-08-02T00:13:57.408Z,16.09
2023-08-02T00:16:24.142Z,16.08
2023-08-02T00:18:50.781Z,16.11
2023-08-02T00:21:17.376Z,16.06
2023-08-02T00:23:43.959Z,16.07
2023-08-02T00:26:10.504Z,16.08
2023-08-02T00:28:37.056Z,16.03
2023-08-02T00:31:03.666Z,16.02
2023-08-02T00:33:30.345Z,16.06
2023-08-02T00:35:57.858Z,16.09
2023-08-02T00:38:24.491Z,16.10
2023-08-02T00:40:51.049Z,16.08
2023-08-02T00:43:17.645Z,16.11
2023-08-02T00:45:44.525Z,16.10
2023-08-02T00:48:11.255Z,16.15
2023-08-02T00:50:38.787Z,16.12
2023-08-02T00:53:05.456Z,16.19
2023-08-02T00:55:32.124Z,16.17
2023-08-02T00:57:58.635Z,16.16
2023-08-02T01:00:25.228Z,16.12
2023-08-02T01:02:51.813Z,16.03
2023-08-02T01:05:20.257Z,16.01
2023-08-02T01:07:59.239Z,16.01
2023-08-02T01:10:47.534Z,15.97
2023-08-02T01:13:16.394Z,15.95
2023-08-02T01:15:43.329Z,15.96
2023-08-02T01:18:10.765Z,15.94
2023-08-02T01:20:37.364Z,15.90
2023-08-02T01:23:03.914Z,15.95
2023-08-02T01:25:32.549Z,15.90
2023-08-02T01:28:04.675Z,15.85
2023-08-02T01:30:37.703Z,15.85
2023-08-02T01:33:05.459Z,15.88
2023-08-02T01:35:32.396Z,15.87
2023-08-02T01:38:00.240Z,15.76
2023-08-02T01:40:26.787Z,15.71
2023-08-02T01:42:53.322Z,15.73
2023-08-02T01:45:19.828Z,15.69
2023-08-02T01:47:46.483Z,15.61
2023-08-02T01:50:13.030Z,15.65
2023-08-02T01:52:39.547Z,15.62
2023-08-02T01:55:06.728Z,15.60
2023-08-02T01:57:33.255Z,15.57
2023-08-02T01:59:59.853Z,15.51
2023-08-02T02:02:26.477Z,15.45
2023-08-02T02:04:53.142Z,15.48
2023-08-02T02:07:19.717Z,15.48
2023-08-02T02:09:46.463Z,15.49
2023-08-02T02:12:13.086Z,15.52
2023-08-02T02:14:39.648Z,15.57
2023-08-02T02:17:06.274Z,15.59
2023-08-02T02:19:32.802Z,15.59
2023-08-02T02:21:59.428Z,15.60
2023-08-02T02:24:25.981Z,15.63
2023-08-02T02:26:52.594Z,15.58
2023-08-02T02:29:19.182Z,15.54
2023-08-02T02:31:46.121Z,15.48
2023-08-02T02:34:12.845Z,15.46
2023-08-02T02:36:39.980Z,15.49
2023-08-02T02:39:06.856Z,15.51
2023-08-02T02:41:33.423Z,15.56
2023-08-02T02:43:59.960Z,15.52
2023-08-02T02:46:26.500Z,15.58
2023-08-02T02:48:53.054Z,15.70
2023-08-02T02:51:19.621Z,15.73
2023-08-02T02:53:46.175Z,15.76
2023-08-02T02:56:12.697Z,15.76
2023-08-02T02:58:39.247Z,15.78
2023-08-02T03:01:05.878Z,15.79
2023-08-02T03:03:32.567Z,15.79
2023-08-02T03:05:59.113Z,15.67
2023-08-02T03:08:25.864Z,15.69
2023-08-02T03:10:52.455Z,15.63
2023-08-02T03:13:19.073Z,15.60
2023-08-02T03:15:45.582Z,15.55
2023-08-02T03:18:12.187Z,15.48
2023-08-02T03:20:40.322Z,15.54
2023-08-02T03:23:07.188Z,15.52
2023-08-02T03:25:33.802Z,15.52
2023-08-02T03:28:00.362Z,15.51
2023-08-02T03:30:26.958Z,15.54
2023-08-02T03:32:53.570Z,15.51
2023-08-02T03:35:20.123Z,15.46
2023-08-02T03:37:46.659Z,15.48
2023-08-02T03:40:13.191Z,15.39
2023-08-02T03:42:39.751Z,15.35
2023-08-02T03:45:06.717Z,15.33
2023-08-02T03:47:33.345Z,15.28
2023-08-02T03:49:59.893Z,15.19
2023-08-02T03:52:26.449Z,15.12
2023-08-02T03:54:53.072Z,15.07
2023-08-02T03:57:19.655Z,15.03
2023-08-02T03:59:46.178Z,14.97
2023-08-02T04:02:12.799Z,14.92
2023-08-02T04:04:40.375Z,14.90
2023-08-02T04:07:08.619Z,14.90
2023-08-02T04:09:35.202Z,14.89
2023-08-02T04:12:01.766Z,14.85
2023-08-02T04:14:28.290Z,14.86
2023-08-02T04:16:54.869Z,14.87
2023-08-02T04:19:21.453Z,14.89
2023-08-02T04:21:48.991Z,14.95
2023-08-02T04:24:15.596Z,14.99
2023-08-02T04:26:42.411Z,15.02
2023-08-02T04:29:09.614Z,15.03
2023-08-02T04:31:36.288Z,15.01
2023-08-02T04:34:02.908Z,14.96
2023-08-02T04:36:29.448Z,14.94
2023-08-02T04:38:55.959Z,14.91
2023-08-02T04:41:22.472Z,14.87
2023-08-02T04:43:49.380Z,14.87
2023-08-02T04:46:16.347Z,14.87
2023-08-02T04:48:43.063Z,14.86
2023-08-02T04:51:11.065Z,14.87
2023-08-02T04:53:37.831Z,14.87
2023-08-02T04:56:10.048Z,14.87
2023-08-02T04:58:36.851Z,14.87
2023-08-02T05:01:04.013Z,14.87
2023-08-02T05:03:30.641Z,14.86
2023-08-02T05:06:04.415Z,14.86
2023-08-02T05:08:32.357Z,14.84
2023-08-02T05:10:58.884Z,14.85
2023-08-02T05:13:26.710Z,14.84
2023-08-02T05:15:54.887Z,14.87
2023-08-02T05:18:21.455Z,14.85
2023-08-02T05:20:48.027Z,14.85
2023-08-02T05:23:14.645Z,14.85
2023-08-02T05:25:41.197Z,14.85
2023-08-02T05:28:07.762Z,14.86
2023-08-02T05:30:36.024Z,14.86
2023-08-02T05:33:02.630Z,14.84
2023-08-02T05:35:31.035Z,14.81
2023-08-02T05:37:57.875Z,14.81
2023-08-02T05:40:24.472Z,14.82
2023-08-02T05:42:51.065Z,14.80
2023-08-02T05:45:17.692Z,14.77
2023-08-02T05:47:44.303Z,14.78
2023-08-02T05:50:10.941Z,14.80
2023-08-02T05:52:37.474Z,14.80
2023-08-02T05:55:04.315Z,14.81
2023-08-02T05:57:30.875Z,14.82
2023-08-02T05:59:57.383Z,14.83
2023-08-02T06:02:23.948Z,14.84
2023-08-02T06:04:50.585Z,14.84
2023-08-02T06:07:17.277Z,14.87
2023-08-02T06:09:43.786Z,14.87
2023-08-02T06:12:10.356Z,14.86
2023-08-02T06:14:36.933Z,14.88
2023-08-02T06:17:03.601Z,14.86
2023-08-02T06:19:30.974Z,14.85
2023-08-02T06:21:57.742Z,14.86
2023-08-02T06:24:24.328Z,14.88
2023-08-02T06:26:50.936Z,14.89
2023-08-02T06:29:17.507Z,14.88
2023-08-02T06:31:44.239Z,14.87
2023-08-02T06:34:11.147Z,14.88
2023-08-02T06:36:39.507Z,14.93
2023-08-02T06:39:06.606Z,14.92
2023-08-02T06:41:33.169Z,14.93
2023-08-02T06:43:59.864Z,14.93
2023-08-02T06:46:26.507Z,14.95
2023-08-02T06:48:53.084Z,14.93
2023-08-02T06:51:19.639Z,14.92
2023-08-02T06:53:46.157Z,14.95
2023-08-02T06:56:14.179Z,14.99
2023-08-02T06:58:43.724Z,14.97
2023-08-02T07:01:17.524Z,15.02
2023-08-02T07:03:44.640Z,15.04
2023-08-02T07:06:19.387Z,15.05
2023-08-02T07:08:46.401Z,15.08
2023-08-02T07:11:26.068Z,15.07
2023-08-02T07:13:57.280Z,15.13
2023-08-02T07:16:23.897Z,15.14
2023-08-02T07:18:50.450Z,15.21
2023-08-02T07:21:16.988Z,15.27
2023-08-02T07:23:43.535Z,15.32
2023-08-02T07:26:10.731Z,15.32
2023-08-02T07:28:37.258Z,15.30
2023-08-02T07:31:11.471Z,15.29
2023-08-02T07:33:38.136Z,15.32
2023-08-02T07:36:05.275Z,15.31
2023-08-02T07:38:32.320Z,15.30
2023-08-02T07:40:58.855Z,15.35
2023-08-02T07:43:25.496Z,15.37
2023-08-02T07:45:52.096Z,15.39
2023-08-02T07:48:18.641Z,15.38
2023-08-02T07:50:45.220Z,15.44
2023-08-02T07:53:11.824Z,15.49
2023-08-02T07:55:38.410Z,15.55
2023-08-02T07:58:04.973Z,15.62
2023-08-02T08:00:31.531Z,15.68
2023-08-02T08:02:58.141Z,15.80
2023-08-02T08:05:26.544Z,15.94
2023-08-02T08:07:53.183Z,16.07
2023-08-02T08:10:19.860Z,16.19
2023-08-02T08:12:46.426Z,16.40
2023-08-02T08:15:12.965Z,16.57
2023-08-02T08:17:39.535Z,16.73
2023-08-02T08:20:06.997Z,16.96
2023-08-02T08:22:33.960Z,17.21
2023-08-02T08:25:00.627Z,17.34
2023-08-02T08:27:27.233Z,17.57
2023-08-02T08:29:53.780Z,17.73
2023-08-02T08:32:21.359Z,18.07
2023-08-02T08:34:47.965Z,18.25
2023-08-02T08:37:14.501Z,18.14
2023-08-02T08:39:41.123Z,18.08
2023-08-02T08:42:08.848Z,18.12
2023-08-02T08:44:39.184Z,17.92
2023-08-02T08:47:09.040Z,17.85
2023-08-02T08:49:35.633Z,17.85
2023-08-02T08:52:07.486Z,17.89
2023-08-02T08:54:37.107Z,18.06
2023-08-02T08:57:05.770Z,18.19
2023-08-02T08:59:32.602Z,18.34
2023-08-02T09:02:00.167Z,18.62
2023-08-02T09:04:27.208Z,18.88
2023-08-02T09:06:53.751Z,19.03
2023-08-02T09:09:20.310Z,19.03
2023-08-02T09:11:47.094Z,19.21
2023-08-02T09:14:17.606Z,19.25
2023-08-02T09:17:04.266Z,19.31
2023-08-02T09:19:32.853Z,19.34
2023-08-02T09:22:17.991Z,19.44
2023-08-02T09:24:46.284Z,19.54
2023-08-02T09:27:18.258Z,19.37
2023-08-02T09:29:46.160Z,19.45
2023-08-02T09:32:15.635Z,19.44
2023-08-02T09:34:50.107Z,19.39
2023-08-02T09:37:17.249Z,19.08
2023-08-02T09:39:50.394Z,18.93
2023-08-02T09:42:18.661Z,18.84
2023-08-02T09:45:11.761Z,18.66
2023-08-02T09:47:38.338Z,18.69
2023-08-02T09:50:12.690Z,18.73
2023-08-02T09:52:39.673Z,18.79
2023-08-02T09:55:07.511Z,18.83
2023-08-02T09:57:34.653Z,18.88
2023-08-02T10:00:07.587Z,19.03
2023-08-02T10:02:35.894Z,19.34
2023-08-02T10:05:03.764Z,19.61
2023-08-02T10:07:40.577Z,19.90
2023-08-02T10:10:10.949Z,20.27
2023-08-02T10:12:37.691Z,20.63
2023-08-02T10:15:04.635Z,20.90
2023-08-02T10:17:32.596Z,20.74
2023-08-02T10:20:03.603Z,21.01
2023-08-02T10:22:31.375Z,20.48
2023-08-02T10:24:58.262Z,19.96
2023-08-02T10:27:25.326Z,20.02
2023-08-02T10:29:53.783Z,20.41
2023-08-02T10:32:22.994Z,20.84
2023-08-02T10:34:51.285Z,21.16
2023-08-02T10:37:19.731Z,21.59
2023-08-02T10:39:46.195Z,21.75
2023-08-02T10:42:17.759Z,21.59
2023-08-02T10:44:56.352Z,21.35
2023-08-02T10:47:29.548Z,21.63
2023-08-02T10:49:56.974Z,22.16
2023-08-02T10:52:40.250Z,22.42
2023-08-02T10:55:14.936Z,22.32
2023-08-02T10:58:08.101Z,22.59
2023-08-02T11:00:38.426Z,22.35
2023-08-02T11:03:05.143Z,22.07
2023-08-02T11:05:46.251Z,21.93
2023-08-02T11:08:12.999Z,22.16
2023-08-02T11:10:55.913Z,22.29
2023-08-02T11:13:23.810Z,22.35
2023-08-02T11:16:04.390Z,23.09
2023-08-02T11:18:34.861Z,22.53
2023-08-02T11:21:12.200Z,22.82
2023-08-02T11:23:39.525Z,22.68
2023-08-02T11:26:25.738Z,22.83
2023-08-02T11:28:53.612Z,22.24
2023-08-02T11:31:24.245Z,22.13
2023-08-02T11:33:50.917Z,22.17
2023-08-02T11:36:17.820Z,22.70
2023-08-02T11:38:44.509Z,23.16
2023-08-02T11:41:19.780Z,23.56
2023-08-02T11:43:46.760Z,22.90
2023-08-02T11:46:15.172Z,22.71
2023-08-02T11:48:42.142Z,22.18
2023-08-02T11:51:10.784Z,22.63
2023-08-02T11:53:56.750Z,22.89
2023-08-02T11:56:27.648Z,23.31
2023-08-02T11:58:54.530Z,22.63
2023-08-02T12:01:21.650Z,22.38
2023-08-02T12:03:55.044Z,22.38
2023-08-02T12:06:21.650Z,22.72
2023-08-02T12:08:56.220Z,22.99
2023-08-02T12:11:23.639Z,23.09
2023-08-02T12:13:50.478Z,22.91
2023-08-02T12:16:17.914Z,22.83
2023-08-02T12:18:55.151Z,23.17
2023-08-02T12:21:22.834Z,23.33
2023-08-02T12:23:49.604Z,23.49
2023-08-02T12:26:36.695Z,22.84
2023-08-02T12:29:04.082Z,22.67
2023-08-02T12:31:46.628Z,23.14
2023-08-02T12:34:13.524Z,23.62
2023-08-02T12:36:40.225Z,23.38
2023-08-02T12:39:06.915Z,22.58
2023-08-02T12:41:33.565Z,22.38
2023-08-02T12:44:04.219Z,23.46
2023-08-02T12:46:32.661Z,23.31
2023-08-02T12:48:59.190Z,23.26
2023-08-02T12:51:25.792Z,22.68
2023-08-02T12:53:52.352Z,23.01
2023-08-02T12:56:18.898Z,22.53
2023-08-02T12:58:45.470Z,22.54
2023-08-02T13:01:12.130Z,22.79
2023-08-02T13:03:38.808Z,23.56
2023-08-02T13:06:05.619Z,22.82
2023-08-02T13:08:32.292Z,22.62
2023-08-02T13:10:58.945Z,22.94
2023-08-02T13:13:25.570Z,22.98
2023-08-02T13:15:52.938Z,23.28
2023-08-02T13:18:19.614Z,23.21
2023-08-02T13:20:46.210Z,22.53
2023-08-02T13:23:12.797Z,23.32
2023-08-02T13:25:39.726Z,22.60
2023-08-02T13:28:07.836Z,22.35
2023-08-02T13:30:35.044Z,22.22
2023-08-02T13:33:01.786Z,22.73
2023-08-02T13:35:28.458Z,23.16
2023-08-02T13:37:54.993Z,23.14
2023-08-02T13:40:21.553Z,23.03
2023-08-02T13:42:48.121Z,23.35
2023-08-02T13:45:14.715Z,23.48
2023-08-02T13:47:41.329Z,22.57
2023-08-02T13:50:08.137Z,21.82
2023-08-02T13:52:35.000Z,21.37
2023-08-02T13:55:02.597Z,21.37
2023-08-02T13:57:29.132Z,21.64
2023-08-02T13:59:55.664Z,21.49
2023-08-02T14:02:22.373Z,21.38
2023-08-02T14:04:49.698Z,21.23
2023-08-02T14:07:16.420Z,21.41
2023-08-02T14:09:43.015Z,21.38
2023-08-02T14:12:16.296Z,21.28
2023-08-02T14:14:43.862Z,21.16
2023-08-02T14:17:10.686Z,21.01
2023-08-02T14:19:37.381Z,20.99
2023-08-02T14:22:05.367Z,20.82
2023-08-02T14:24:32.059Z,20.52
2023-08-02T14:26:58.644Z,20.56
2023-08-02T14:29:25.176Z,20.49
2023-08-02T14:31:51.856Z,20.42
2023-08-02T14:34:23.193Z,20.28
2023-08-02T14:36:49.992Z,20.19
2023-08-02T14:39:16.638Z,20.27
2023-08-02T14:41:43.166Z,19.81
2023-08-02T14:44:09.851Z,19.67
2023-08-02T14:46:36.495Z,19.19
2023-08-02T14:49:03.183Z,18.98
2023-08-02T14:51:29.716Z,18.92
2023-08-02T14:54:07.578Z,18.86
2023-08-02T14:56:38.953Z,18.68
2023-08-02T14:59:05.518Z,18.60
2023-08-02T15:01:32.035Z,18.59
2023-08-02T15:03:58.549Z,18.68
2023-08-02T15:06:28.092Z,18.82
2023-08-02T15:08:54.747Z,18.89
2023-08-02T15:11:21.574Z,18.86
2023-08-02T15:13:48.111Z,18.90
2023-08-02T15:16:14.768Z,19.19
2023-08-02T15:18:41.650Z,19.23
2023-08-02T15:21:08.362Z,19.04
2023-08-02T15:23:34.912Z,19.27
2023-08-02T15:26:01.506Z,19.21
2023-08-02T15:28:28.070Z,19.24
2023-08-02T15:30:54.754Z,19.29
2023-08-02T15:33:21.419Z,19.33
2023-08-02T15:35:48.145Z,19.39
2023-08-02T15:38:14.668Z,19.26
2023-08-02T15:40:41.217Z,19.33
2023-08-02T15:43:08.499Z,19.57
2023-08-02T15:45:35.144Z,19.67
2023-08-02T15:48:01.725Z,19.64
2023-08-02T15:50:28.345Z,19.58
2023-08-02T15:52:54.938Z,19.46
2023-08-02T15:55:22.843Z,19.31
2023-08-02T15:57:50.918Z,19.28
2023-08-02T16:00:18.830Z,19.46
2023-08-02T16:02:45.992Z,19.53
2023-08-02T16:05:12.744Z,19.58
2023-08-02T16:07:40.971Z,19.41
2023-08-02T16:10:07.837Z,19.30
2023-08-02T16:12:34.411Z,19.34
2023-08-02T16:15:00.998Z,19.24
2023-08-02T16:17:27.575Z,19.18
2023-08-02T16:19:54.157Z,19.30
2023-08-02T16:22:20.672Z,19.22
2023-08-02T16:24:47.241Z,19.36
2023-08-02T16:27:14.690Z,19.31
2023-08-02T16:29:41.817Z,19.26
2023-08-02T16:32:08.669Z,19.07
2023-08-02T16:34:35.318Z,19.00
2023-08-02T16:37:01.871Z,18.55
2023-08-02T16:39:28.417Z,18.22
2023-08-02T16:41:54.974Z,17.94
2023-08-02T16:44:21.551Z,17.69
2023-08-02T16:46:48.167Z,17.60
2023-08-02T16:49:14.692Z,17.42
2023-08-02T16:51:41.630Z,17.39
2023-08-02T16:54:08.554Z,17.37
2023-08-02T16:56:35.109Z,17.40
2023-08-02T16:59:01.798Z,17.38
2023-08-02T17:01:28.473Z,17.40
2023-08-02T17:03:55.062Z,17.44
2023-08-02T17:06:21.857Z,17.51
2023-08-02T17:08:48.631Z,17.64
2023-08-02T17:11:15.170Z,17.57
2023-08-02T17:13:41.721Z,17.64
2023-08-02T17:16:08.373Z,17.67
2023-08-02T17:18:34.908Z,17.83
2023-08-02T17:21:01.511Z,18.00
2023-08-02T17:23:29.047Z,18.09
2023-08-02T17:25:55.637Z,18.12
2023-08-02T17:28:22.218Z,17.95
2023-08-02T17:30:48.813Z,17.84
2023-08-02T17:33:15.548Z,17.70
2023-08-02T17:35:42.170Z,17.65
2023-08-02T17:38:08.718Z,17.42
2023-08-02T17:40:35.496Z,17.16
2023-08-02T17:43:02.170Z,16.89
2023-08-02T17:45:32.336Z,16.48
2023-08-02T17:47:59.181Z,16.28
2023-08-02T17:50:25.968Z,16.17
2023-08-02T17:52:52.583Z,16.09
2023-08-02T17:55:19.167Z,16.00
2023-08-02T17:57:45.730Z,15.88
2023-08-02T18:00:12.718Z,15.74
2023-08-02T18:02:39.341Z,15.67
2023-08-02T18:05:06.716Z,15.65
2023-08-02T18:07:33.294Z,15.62
2023-08-02T18:09:59.877Z,15.64
2023-08-02T18:12:26.480Z,15.62
2023-08-02T18:14:53.005Z,15.59
2023-08-02T18:17:19.681Z,15.58
2023-08-02T18:19:46.723Z,15.55
2023-08-02T18:22:13.421Z,15.51
2023-08-02T18:24:42.981Z,15.58
2023-08-02T18:27:10.154Z,15.59
2023-08-02T18:29:36.704Z,15.62
2023-08-02T18:32:03.550Z,15.69
2023-08-02T18:34:30.128Z,15.78
2023-08-02T18:36:56.705Z,15.85
2023-08-02T18:39:23.344Z,15.88
2023-08-02T18:41:49.879Z,15.95
2023-08-02T18:44:16.449Z,15.97
2023-08-02T18:46:43.089Z,16.02
2023-08-02T18:49:09.636Z,16.03
2023-08-02T18:51:36.276Z,16.06
2023-08-02T18:54:02.855Z,16.05
2023-08-02T18:56:29.458Z,16.10
2023-08-02T18:58:57.017Z,16.13
2023-08-02T19:01:23.667Z,16.14
2023-08-02T19:03:52.042Z,16.15
2023-08-02T19:06:18.736Z,16.17
2023-08-02T19:08:47.530Z,16.20
2023-08-02T19:11:22.301Z,16.23
2023-08-02T19:13:49.641Z,16.14
2023-08-02T19:16:16.623Z,16.07
2023-08-02T19:18:43.643Z,16.01
2023-08-02T19:21:13.742Z,15.99
2023-08-02T19:23:43.908Z,15.96
2023-08-02T19:26:17.257Z,15.95
2023-08-02T19:28:44.144Z,15.96
2023-08-02T19:31:10.742Z,15.93
2023-08-02T19:33:45.583Z,15.89
2023-08-02T19:36:20.059Z,15.92
2023-08-02T19:38:46.687Z,15.91
2023-08-02T19:41:24.002Z,15.93
2023-08-02T19:43:50.669Z,15.97
2023-08-02T19:46:17.295Z,16.00
2023-08-02T19:48:44.059Z,16.02
2023-08-02T19:51:10.724Z,16.05
2023-08-02T19:53:37.446Z,16.15
2023-08-02T19:56:06.463Z,16.17
2023-08-02T19:58:33.081Z,16.22
2023-08-02T20:00:59.658Z,16.22
2023-08-02T20:03:27.341Z,16.27
2023-08-02T20:06:01.125Z,16.28
2023-08-02T20:08:31.148Z,16.28
2023-08-02T20:11:04.409Z,16.27
2023-08-02T20:13:42.075Z,16.28
2023-08-02T20:16:11.597Z,16.29
2023-08-02T20:18:38.294Z,16.23
2023-08-02T20:21:20.470Z,16.13
2023-08-02T20:23:49.567Z,15.99
2023-08-02T20:26:18.885Z,15.88
2023-08-02T20:28:54.243Z,15.80
2023-08-02T20:31:22.235Z,15.76
2023-08-02T20:33:50.632Z,15.78
2023-08-02T20:36:18.729Z,15.80
2023-08-02T20:38:47.082Z,15.78
2023-08-02T20:41:18.220Z,15.81
2023-08-02T20:43:46.658Z,15.87
2023-08-02T20:46:16.932Z,15.93
2023-08-02T20:48:43.730Z,15.92
2023-08-02T20:51:14.338Z,15.88
2023-08-02T20:53:41.243Z,15.83
2023-08-02T20:56:09.502Z,15.82
2023-08-02T20:58:36.508Z,15.79
2023-08-02T21:01:05.386Z,15.69
2023-08-02T21:03:32.041Z,15.62
2023-08-02T21:05:59.686Z,15.59
2023-08-02T21:08:26.322Z,15.56
2023-08-02T21:10:52.911Z,15.56
2023-08-02T21:13:19.488Z,15.55
2023-08-02T21:15:47.529Z,15.53
2023-08-02T21:18:14.377Z,15.48
2023-08-02T21:20:45.760Z,15.49
2023-08-02T21:23:17.111Z,15.48
2023-08-02T21:25:45.666Z,15.47
2023-08-02T21:28:14.550Z,15.48
2023-08-02T21:30:43.646Z,15.49
2023-08-02T21:33:11.362Z,15.45
2023-08-02T21:35:38.432Z,15.43
2023-08-02T21:38:05.286Z,15.43
2023-08-02T21:40:31.857Z,15.43
2023-08-02T21:42:58.398Z,15.43
2023-08-02T21:45:24.939Z,15.43
2023-08-02T21:47:51.888Z,15.43
2023-08-02T21:50:19.991Z,15.44
2023-08-02T21:52:50.177Z,15.45
2023-08-02T21:55:18.344Z,15.48
2023-08-02T21:57:44.904Z,15.48
2023-08-02T22:00:11.869Z,15.49
2023-08-02T22:02:42.257Z,15.50
2023-08-02T22:05:12.515Z,15.44
2023-08-02T22:07:41.157Z,15.41
2023-08-02T22:10:15.467Z,15.41
2023-08-02T22:12:46.139Z,15.41
2023-08-02T22:15:13.045Z,15.42
2023-08-02T22:17:39.607Z,15.42
2023-08-02T22:20:07.013Z,15.42
2023-08-02T22:22:33.626Z,15.43
2023-08-02T22:25:00.285Z,15.46
2023-08-02T22:27:28.245Z,15.44
2023-08-02T22:29:59.621Z,15.46
2023-08-02T22:32:27.080Z,15.47
2023-08-02T22:34:53.751Z,15.47
2023-08-02T22:37:20.321Z,15.49
2023-08-02T22:39:46.860Z,15.53
2023-08-02T22:42:13.488Z,15.61
2023-08-02T22:44:40.060Z,15.67
2023-08-02T22:47:06.730Z,15.72
2023-08-02T22:50:43.478Z,15.79
2023-08-02T22:52:23.233Z,15.85
2023-08-02T22:54:52.387Z,15.91
2023-08-02T22:57:31.460Z,15.94
2023-08-02T22:59:58.575Z,15.99
2023-08-02T23:02:30.426Z,16.02
2023-08-02T23:04:57.125Z,16.03
2023-08-02T23:07:29.811Z,16.07
2023-08-02T23:10:00.331Z,16.06
2023-08-02T23:12:27.107Z,16.06
2023-08-02T23:14:59.083Z,16.08
2023-08-02T23:17:25.962Z,16.11
2023-08-02T23:19:52.485Z,16.13
2023-08-02T23:22:19.007Z,16.14
2023-08-02T23:24:45.824Z,16.14
2023-08-02T23:27:26.050Z,16.17
2023-08-02T23:29:53.277Z,16.16
2023-08-02T23:32:20.471Z,16.16
2023-08-02T23:34:47.031Z,16.13
2023-08-02T23:37:13.597Z,16.08
2023-08-02T23:39:40.149Z,16.08
2023-08-02T23:42:07.269Z,16.02
2023-08-02T23:44:33.933Z,15.97
2023-08-02T23:47:00.565Z,15.93
2023-08-02T23:49:27.206Z,15.95
2023-08-02T23:51:53.743Z,15.94
2023-08-02T23:54:20.323Z,15.98
2023-08-02T23:56:46.843Z,16.00
2023-08-02T23:59:13.403Z,16.01
